Xandi im Turnier von 01.01.2019 bis 01.02.2019

Xandis Ergebnis

Rang 570.
Turnierpunkte 926
Gespielt : Gewonnen 100 : 58
Schneider 2
Bilanz 572:524

Xandis Bummerln

Zeit Gegner Ergebnis Ende
15:21:19 am 13.01.2019 Queen Lisi 1:7 normal
15:15:31 am 13.01.2019 Waldl 7:1 normal
15:09:36 am 13.01.2019 Kaskuchen 8:6 normal
15:03:29 am 13.01.2019 ernstl 7:5 normal
14:59:28 am 13.01.2019 Johannes Schachner 3:7 normal
14:53:11 am 13.01.2019 M.Tom 7:6 normal
14:47:56 am 13.01.2019 Manu 7:2 normal
14:41:42 am 13.01.2019 Hanni 7:4 normal
20:42:54 am 11.01.2019 SM-G900F 8:2 normal
20:37:31 am 11.01.2019 lumpek 2:8 normal
20:30:56 am 11.01.2019 sir johann 4:8 normal
20:25:53 am 11.01.2019 Herbert Haider 8:6 normal
20:22:26 am 11.01.2019 Chris1 7:3 normal
20:13:07 am 11.01.2019 Atina 8:5 normal
20:11:15 am 11.01.2019 Franzi FWT 0:7 normal
20:06:21 am 11.01.2019 Thomi 7:3 normal
20:01:47 am 11.01.2019 waschnigwtc@gmail.com 7:6 normal
19:56:34 am 11.01.2019 Bogi Mat 3:7 normal
19:47:43 am 11.01.2019 BRA3V3KU 8:3 normal
19:40:24 am 11.01.2019 reini 3:8 normal
19:32:40 am 11.01.2019 fff 8:5 normal
19:27:49 am 11.01.2019 B o j a n 8:2 normal
19:23:42 am 11.01.2019 Oldschool 7:2 normal
19:13:22 am 11.01.2019 Daniel 9:4 normal
19:08:31 am 11.01.2019 LGE LG-D331 3:7 normal
14:42:47 am 11.01.2019 Daniel 7:4 normal
14:36:43 am 11.01.2019 Schnopsa 7:6 normal
14:31:16 am 11.01.2019 Hase 9:2 normal
14:28:32 am 11.01.2019 RaabS 7:3 normal
14:20:33 am 11.01.2019 wuff 3:9 normal
14:15:21 am 11.01.2019 Paul 7:2 normal
14:10:03 am 11.01.2019 Christof 4:7 normal
09:53:23 am 11.01.2019 Hittnpülga 6:7 normal
09:49:26 am 11.01.2019 Carlo 4:8 normal
09:43:18 am 11.01.2019 Aers 3:8 normal
09:39:32 am 11.01.2019 charly 5:7 normal
09:33:51 am 11.01.2019 mani 2:9 normal
09:28:34 am 11.01.2019 Hypo 7:3 normal
09:23:29 am 11.01.2019 sue 5:7 normal
09:15:33 am 11.01.2019 Bauer 3:7 normal
13:03:08 am 09.01.2019 Tina 7:1 normal
12:56:35 am 09.01.2019 Tomi Koczkas 6:9 normal
20:30:44 am 07.01.2019 bauxl 9:5 normal
20:24:59 am 07.01.2019 Danie 7:6 normal
20:18:14 am 07.01.2019 Jimmy 7:1 normal
20:11:41 am 07.01.2019 gerrymei 3:7 normal
20:06:00 am 07.01.2019 Speedy 5:7 normal
15:38:36 am 07.01.2019 martin 6:9 normal
15:33:24 am 07.01.2019 AndPic 1:7 normal
15:29:54 am 07.01.2019 1. FC Köln 1:8 normal
12:54:06 am 07.01.2019 wirtshausrunde 7:3 normal
12:46:36 am 07.01.2019 Franz 007 8:6 normal
12:41:09 am 07.01.2019 Dizzy 1:8 normal
12:33:29 am 07.01.2019 Bin a do 7:4 normal
12:27:48 am 07.01.2019 Markus Ecker 7:5 normal
12:23:56 am 07.01.2019 Huberts iPhone offic... 8:4 normal
12:19:21 am 07.01.2019 Rudy Kaiblinger 9:4 normal
20:38:47 am 05.01.2019 leobia 8:3 normal
20:34:56 am 05.01.2019 Manuels iPhone 9:2 normal
20:30:34 am 05.01.2019 maxF 9:2 normal
20:27:31 am 05.01.2019 Szabi 1:7 normal
20:24:49 am 05.01.2019 Johann 5:7 normal
20:16:53 am 05.01.2019 René 7:6 normal
20:14:22 am 05.01.2019 Schnopser 3:7 normal
20:11:51 am 05.01.2019 Walter 3:7 normal
20:05:15 am 05.01.2019 gust2 1:9 normal
20:01:46 am 05.01.2019 Harald Serschen 3:7 normal
19:55:20 am 05.01.2019 GT-King3 7:4 normal
19:49:17 am 05.01.2019 Fridolin 7:4 normal
19:39:36 am 05.01.2019 Borderly 5:7 normal
19:34:00 am 05.01.2019 rossi 7:3 normal
19:28:21 am 05.01.2019 Hotingirl 8:4 normal
19:22:49 am 05.01.2019 Markus iphone 7:6 normal
19:18:02 am 05.01.2019 12345 5:7 normal
19:09:51 am 05.01.2019 Christian Timischl 5:8 normal
19:04:53 am 05.01.2019 Herbert 8:6 normal
18:57:47 am 05.01.2019 samsung SM-N960F 7:5 normal
22:43:56 am 04.01.2019 *EVA 8:0 autocontnormal
22:39:06 am 04.01.2019 Zipferschlucker 8:1 normal
22:36:39 am 04.01.2019 Mlintsche 8:2 normal
22:31:58 am 04.01.2019 samsung SM-J330F 4:8 normal
22:27:40 am 04.01.2019 duzers692 7:5 normal
22:22:19 am 04.01.2019 Reni 3:8 normal
22:17:34 am 04.01.2019 Martins iPhone 8:1 normal
22:14:41 am 04.01.2019 Klaudia 3:8 normal
22:08:54 am 04.01.2019 Hr Heinz 8:5 normal
22:03:16 am 04.01.2019 manuel1080 7:5 normal
21:51:13 am 04.01.2019 iPhone GG 4:7 normal
21:47:51 am 04.01.2019 dj9875 1:9 normal
21:41:16 am 04.01.2019 koglpapa 8:4 normal
21:38:18 am 04.01.2019 hjs 8:0 normal
21:32:58 am 04.01.2019 Siggi1102 2:7 normal
21:29:50 am 04.01.2019 Caddy 9:2 normal
21:22:35 am 04.01.2019 oldfox 8:5 normal
21:17:40 am 04.01.2019 herta 2:7 normal
21:12:39 am 04.01.2019 Frieda 3:7 normal
21:08:16 am 04.01.2019 Godis 7:1 normal
21:03:38 am 04.01.2019 Black Cat 7:2 normal
20:56:19 am 04.01.2019 mesut 7:5 normal
20:52:32 am 04.01.2019 DELETED 2:7 normal